YCN weather

Cochrane Airport
Cochrane, Ontario, Canada

Public forecast

Using degrees Celsius for public forecast. Weather courtesy of forecast.io.

METAR (pilot weather report)

Closest report is Timmins/Victor M. Power, 35.2 nm (65.2 km) SSW. Retrieved 2019/05/20 16:29 UTC (0 seconds ago):

CYTS 201629Z 30009G15KT 15SM OVC007 04/04 A2983 RMK SC8 SLP116

TAF (pilot weather forecast)

Closest forecast is Timmins/Victor M. Power, 35.2 nm (65.2 km) SSW. Retrieved 2019/05/20 14:39 UTC (1 hour ago):

TAF CYTS 201338Z 2014/2102 35010KT 6SM BR OVC005 TEMPO 2014/2017 P6SM NSW SCT005 OVC040 FM201700 33012G22KT P6SM BKN040 TEMPO 2017/2019 BKN020 OVC040 BECMG 2100/2102 31010KT RMK NXT FCST BY 202000Z